Flight Track Log - Related Links

Times and Time Zones

All times are in EST time to prevent confusion due to time zone crossing. See the AAR317 flight status page for this flight to view local times or setup timezone preferences in your user account.

Time Position Orientation Groundspeed Altitude Reporting Facility
EST Latitude Longitude Course Direction KTS MPH feet Rate Location/Type
Thu 07:27:00 PM 37.4465 126.0189 257° West  Level Estimated
Thu 07:28:00 PM 37.4302 125.9299 257° West  Level Estimated
Thu 07:29:00 PM 37.4139 125.8410 257° West  Level Estimated
Thu 07:30:00 PM 37.3975 125.7521 257° West  Level Estimated
Thu 07:31:00 PM 37.3795 125.6547 257° West  Level Estimated
Thu 07:32:00 PM 37.3613 125.5575 257° West  Level Estimated
Thu 07:33:00 PM 37.3431 125.4602 257° West  Level Estimated
Thu 07:34:00 PM 37.3249 125.3631 257° West  Level Estimated
Thu 07:35:00 PM 37.3065 125.2659 257° West  Level Estimated
Thu 07:36:00 PM 37.2881 125.1688 257° West  Level Estimated
Thu 07:37:00 PM 37.2695 125.0718 257° West  Level Estimated
Thu 07:38:00 PM 37.2509 124.9748 256° West  Level Estimated
Thu 07:39:00 PM 37.2323 124.8779 256° West  Level Estimated
Thu 07:40:00 PM 37.2135 124.7810 256° West  Level Estimated
Thu 07:41:00 PM 37.1947 124.6841 256° West  Level Estimated
Thu 07:42:00 PM 37.1758 124.5873 256° West  Level Estimated
Thu 07:43:00 PM 37.1568 124.4906 256° West  Level Estimated
Thu 07:44:00 PM 37.1377 124.3939 256° West  Level Estimated
Thu 07:45:00 PM 37.1185 124.2972 256° West  Level Estimated
Thu 07:46:00 PM 37.0993 124.2006 256° West  Level Estimated
Thu 07:47:00 PM 37.0800 124.1041 256° West  Level Estimated
Thu 07:48:00 PM 37.0606 124.0076 256° West  Level Estimated
Thu 07:49:00 PM 37.0412 123.9111 256° West  Level Estimated
Thu 07:50:00 PM 37.0216 123.8147 256° West  Level Estimated
Thu 07:51:00 PM 37.0020 123.7184 256° West  Level Estimated
Thu 07:52:00 PM 36.9823 123.6221 256° West  Level Estimated
Thu 07:53:00 PM 36.9625 123.5258 256° West  Level Estimated
Thu 07:54:00 PM 36.9427 123.4296 256° West  Level Estimated
Thu 07:55:00 PM 36.9228 123.3334 255° West  Level Estimated
Thu 07:56:00 PM 36.9027 123.2373 255° West  Level Estimated
Thu 07:57:00 PM 36.8827 123.1413 255° West  Level Estimated
Thu 07:58:00 PM 36.8625 123.0453 255° West  Level Estimated
Thu 07:59:00 PM 36.8423 122.9493 255° West  Level Estimated
Thu 08:00:00 PM 36.8219 122.8534 255° West  Level Estimated
Thu 08:01:00 PM 36.8016 122.7576 255° West  Level Estimated
Thu 08:02:00 PM 36.7811 122.6618 255° West  Level Estimated
Thu 08:03:00 PM 36.7605 122.5660 255° West  Level Estimated
Thu 08:04:00 PM 36.7399 122.4703 255° West  Level Estimated
Thu 08:05:00 PM 36.7192 122.3747 255° West  Level Estimated
Thu 08:06:00 PM 36.6984 122.2791 255° West  Level Estimated
Thu 08:07:00 PM 36.6776 122.1836 255° West  Level Estimated
Thu 08:08:00 PM 36.6567 122.0881 255° West  Level Estimated
Thu 08:09:00 PM 36.6357 121.9926 255° West  Level Estimated
Thu 08:10:00 PM 36.6146 121.8972 255° West  Level Estimated
Thu 08:11:00 PM 36.5934 121.8019 255° West  Level Estimated
Thu 08:12:00 PM 36.5722 121.7066 255° West  Level Estimated
Thu 08:13:00 PM 36.5509 121.6114 254° West  Level Estimated
Thu 08:14:00 PM 36.5295 121.5162 254° West  Level Estimated
Thu 08:15:00 PM 36.5080 121.4211 254° West  Level Estimated
Thu 08:16:00 PM 36.4865 121.3260 254° West  Level Estimated
Thu 08:17:00 PM 36.4649 121.2310 254° West  Level Estimated
Thu 08:18:00 PM 36.4432 121.1360 254° West  Level Estimated
Thu 08:19:00 PM 36.4214 121.0411 254° West  Level Estimated
Thu 08:20:00 PM 36.3996 120.9463 254° West  Level Estimated
Thu 08:21:00 PM 36.3777 120.8515 254° West  Level Estimated
Thu 08:22:00 PM 36.3557 120.7567 254° West  Level Estimated
Thu 08:23:00 PM 36.3336 120.6620 254° West  Level Estimated
Thu 08:24:00 PM 36.3115 120.5674 254° West  Level Estimated
Thu 08:25:00 PM 36.2893 120.4728 254° West  Level Estimated
Thu 08:26:00 PM 36.2670 120.3782 254° West  Level Estimated
Thu 08:27:00 PM 36.2661 120.3744 254° West  Level Estimated
Thu 08:28:00 PM 36.2661 120.3744 238° Southwest  Level Estimated
Thu 08:29:00 PM 36.2661 120.3744 238° Southwest  Level Estimated
Thu 08:30:00 PM 36.2661 120.3744 238° Southwest  Level Estimated
Thu 08:31:00 PM 36.2661 120.3744 238° Southwest  Level Estimated
Thu 08:32:00 PM 36.2661 120.3744 238° Southwest  Level Estimated
Thu 08:33:00 PM 36.2661 120.3744 238° Southwest  Level Estimated
Thu 08:34:00 PM 36.2661 120.3744 238° Southwest  Level Estimated
Thu 08:35:00 PM 36.2661 120.3744 238° Southwest  Level Estimated
Thu 08:36:00 PM 36.2661 120.3744 238° Southwest  Level Estimated
Thu 08:37:00 PM 36.2661 120.3744 238° Southwest  Level Estimated
Thu 08:38:00 PM 36.2661 120.3744 238° Southwest  Level Estimated
Thu 08:39:00 PM 36.2661 120.3744 238° Southwest  Level Estimated
Thu 08:40:00 PM 36.2661 120.3744 238° Southwest  Level Estimated

Login

Don't have an account? Register now (free) for customized features, flight alerts, and more!